Elm River, Illinois
Current Conditions -  °F | °C
As of 3:15 PM on Sunday 23 Nov 2014 (Local Time) from KFWC Reporting Station
Moderate Rain Moderate Rain  
Wind Chill: 52°   Ceiling: 500
Heat Index: 52°   Visibility: 4mi
Dew Point: 52°   Wind: 5mph
Humidity: 98%   Direction: 90°E
Pressure: 29.41"   Gusts: NA
Location:  38.4399°N, 88.4246°W
Report Text: KFWC 232115Z AUTO 09004KT 4SM RA OVC005 11/11 A2941 RMK AO1 T01130110
Loading
Personal Weather Stations






























Interactive Weather Map New forecast layout! Learn more

10-Day Weather Forecast

Advertisements
Track Severe Weather on mobile